createdAt,value
2018-05-15T00:00:21.938Z,101546.16
2018-05-15T00:02:47.660Z,101549.88
2018-05-15T00:05:13.394Z,101543.27
2018-05-15T00:07:39.137Z,101541.98
2018-05-15T00:10:04.900Z,101542.25
2018-05-15T00:12:30.624Z,101545.36
2018-05-15T00:14:56.399Z,101542.91
2018-05-15T00:17:22.135Z,101536.06
2018-05-15T00:19:47.936Z,101544.40
2018-05-15T00:22:13.681Z,101539.42
2018-05-15T00:24:39.419Z,101547.59
2018-05-15T00:27:05.149Z,101544.78
2018-05-15T00:29:30.911Z,101547.06
2018-05-15T00:31:56.645Z,101549.44
2018-05-15T00:34:22.388Z,101548.11
2018-05-15T00:36:48.133Z,101546.91
2018-05-15T00:39:13.880Z,101543.84
2018-05-15T00:41:39.616Z,101544.77
2018-05-15T00:44:05.367Z,101552.06
2018-05-15T00:46:31.128Z,101559.02
2018-05-15T00:48:56.866Z,101554.47
2018-05-15T00:51:22.617Z,101563.28
2018-05-15T00:53:48.356Z,101564.22
2018-05-15T00:56:14.115Z,101557.41
2018-05-15T00:58:39.851Z,101558.29
2018-05-15T01:01:05.605Z,101556.36
2018-05-15T01:03:31.346Z,101555.27
2018-05-15T01:05:57.096Z,101550.14
2018-05-15T01:08:22.841Z,101551.36
2018-05-15T01:10:48.586Z,101552.17
2018-05-15T01:13:14.320Z,101552.52
2018-05-15T01:15:40.062Z,101544.72
2018-05-15T01:18:05.803Z,101545.05
2018-05-15T01:20:31.533Z,101545.36
2018-05-15T01:22:57.277Z,101545.70
2018-05-15T01:25:23.021Z,101541.05
2018-05-15T01:27:48.742Z,101545.91
2018-05-15T01:30:14.475Z,101547.84
2018-05-15T01:32:40.204Z,101547.98
2018-05-15T01:35:05.950Z,101552.61
2018-05-15T01:37:31.689Z,101551.08
2018-05-15T01:39:57.412Z,101546.48
2018-05-15T01:42:23.153Z,101547.85
2018-05-15T01:44:48.885Z,101547.72
2018-05-15T01:47:14.629Z,101548.52
2018-05-15T01:49:40.360Z,101545.33
2018-05-15T01:52:06.092Z,101542.85
2018-05-15T01:54:31.821Z,101540.50
2018-05-15T01:56:57.563Z,101538.36
2018-05-15T01:59:23.291Z,101542.64
2018-05-15T02:01:49.023Z,101543.36
2018-05-15T02:04:14.756Z,101542.40
2018-05-15T02:06:40.504Z,101535.23
2018-05-15T02:09:06.249Z,101531.04
2018-05-15T02:11:31.996Z,101537.54
2018-05-15T02:13:57.711Z,101534.38
2018-05-15T02:16:23.465Z,101532.23
2018-05-15T02:18:49.202Z,101538.11
2018-05-15T02:21:14.953Z,101537.77
2018-05-15T02:23:40.689Z,101540.86
2018-05-15T02:26:06.425Z,101538.97
2018-05-15T02:28:32.159Z,101543.25
2018-05-15T02:30:57.901Z,101544.30
2018-05-15T02:33:23.645Z,101542.63
2018-05-15T02:35:49.388Z,101536.83
2018-05-15T02:38:15.117Z,101548.20
2018-05-15T02:40:40.857Z,101551.23
2018-05-15T02:43:06.584Z,101550.05
2018-05-15T02:45:32.309Z,101551.38
2018-05-15T02:47:58.048Z,101541.19
2018-05-15T02:50:23.786Z,101545.70
2018-05-15T02:52:49.529Z,101537.04
2018-05-15T02:55:15.268Z,101537.59
2018-05-15T02:57:41.009Z,101531.64
2018-05-15T03:00:06.749Z,101536.39
2018-05-15T03:02:32.493Z,101544.66
2018-05-15T03:04:58.219Z,101551.75
2018-05-15T03:07:23.945Z,101550.02
2018-05-15T03:09:49.679Z,101544.97
2018-05-15T03:12:15.433Z,101545.98
2018-05-15T03:14:41.157Z,101543.28
2018-05-15T03:17:06.918Z,101539.08
2018-05-15T03:19:32.648Z,101542.15
2018-05-15T03:21:58.408Z,101539.56
2018-05-15T03:24:24.155Z,101541.69
2018-05-15T03:26:49.905Z,101546.78
2018-05-15T03:29:15.645Z,101543.15
2018-05-15T03:31:41.387Z,101544.27
2018-05-15T03:34:07.145Z,101543.59
2018-05-15T03:36:32.888Z,101543.67
2018-05-15T03:38:58.640Z,101544.50
2018-05-15T03:41:24.389Z,101538.92
2018-05-15T03:43:50.137Z,101541.75
2018-05-15T03:46:15.876Z,101547.11
2018-05-15T03:48:41.628Z,101544.95
2018-05-15T03:51:07.382Z,101545.73
2018-05-15T03:53:33.123Z,101544.51
2018-05-15T03:55:58.902Z,101547.05
2018-05-15T03:58:24.663Z,101541.75
2018-05-15T04:01:02.736Z,101540.83
2018-05-15T04:03:40.837Z,101540.27
2018-05-15T04:06:19.067Z,101536.33
2018-05-15T04:08:44.919Z,101542.70
2018-05-15T04:11:10.663Z,101540.41
2018-05-15T04:13:36.338Z,101546.39
2018-05-15T04:16:02.096Z,101544.08
2018-05-15T04:18:27.859Z,101537.42
2018-05-15T04:20:53.594Z,101532.39
2018-05-15T04:23:19.361Z,101537.95
2018-05-15T04:25:45.100Z,101532.15
2018-05-15T04:28:10.884Z,101538.36
2018-05-15T04:30:36.608Z,101541.77
2018-05-15T04:33:02.364Z,101536.70
2018-05-15T04:35:28.127Z,101537.96
2018-05-15T04:37:53.883Z,101541.37
2018-05-15T04:40:19.628Z,101539.88
2018-05-15T04:42:45.388Z,101536.31
2018-05-15T04:45:11.148Z,101532.98
2018-05-15T04:47:36.889Z,101533.67
2018-05-15T04:50:02.629Z,101533.94
2018-05-15T04:52:28.371Z,101543.02
2018-05-15T04:54:54.108Z,101541.92
2018-05-15T04:57:19.868Z,101542.63
2018-05-15T04:59:45.622Z,101543.48
2018-05-15T05:02:11.370Z,101542.85
2018-05-15T05:04:37.132Z,101541.83
2018-05-15T05:07:02.877Z,101538.09
2018-05-15T05:09:28.619Z,101535.55
2018-05-15T05:11:54.367Z,101537.64
2018-05-15T05:14:20.113Z,101540.86
2018-05-15T05:16:45.861Z,101545.25
2018-05-15T05:19:11.611Z,101548.15
2018-05-15T05:21:37.339Z,101544.05
2018-05-15T05:24:03.082Z,101544.48
2018-05-15T05:26:28.829Z,101549.92
2018-05-15T05:28:54.585Z,101551.50
2018-05-15T05:31:20.328Z,101552.75
2018-05-15T05:33:46.076Z,101552.70
2018-05-15T05:36:11.820Z,101563.13
2018-05-15T05:38:37.570Z,101554.84
2018-05-15T05:41:03.286Z,101557.91
2018-05-15T05:43:29.056Z,101559.13
2018-05-15T05:45:54.795Z,101558.59
2018-05-15T05:48:20.522Z,101561.47
2018-05-15T05:50:46.263Z,101560.58
2018-05-15T05:53:12.008Z,101562.27
2018-05-15T05:55:37.744Z,101567.81
2018-05-15T05:58:03.496Z,101568.61
2018-05-15T06:00:29.266Z,101569.00
2018-05-15T06:02:55.008Z,101570.83
2018-05-15T06:05:20.734Z,101572.44
2018-05-15T06:07:46.492Z,101582.53
2018-05-15T06:10:12.227Z,101575.48
2018-05-15T06:12:37.989Z,101572.13
2018-05-15T06:15:03.745Z,101570.65
2018-05-15T06:17:29.491Z,101572.33
2018-05-15T06:19:55.244Z,101576.26
2018-05-15T06:22:20.998Z,101579.00
2018-05-15T06:24:46.753Z,101579.52
2018-05-15T06:27:12.500Z,101571.40
2018-05-15T06:29:38.255Z,101575.54
2018-05-15T06:32:03.997Z,101572.11
2018-05-15T06:34:29.731Z,101572.24
2018-05-15T06:36:55.457Z,101566.11
2018-05-15T06:39:21.200Z,101575.39
2018-05-15T06:41:46.941Z,101570.59
2018-05-15T06:44:12.685Z,101574.65
2018-05-15T06:46:38.420Z,101571.34
2018-05-15T06:49:04.168Z,101566.14
2018-05-15T06:51:29.900Z,101570.51
2018-05-15T06:53:55.644Z,101568.49
2018-05-15T06:56:21.372Z,101565.08
2018-05-15T06:58:47.121Z,101566.03
2018-05-15T07:01:12.856Z,101572.31
2018-05-15T07:03:38.593Z,101568.87
2018-05-15T07:06:04.326Z,101568.70
2018-05-15T07:08:30.084Z,101570.41
2018-05-15T07:10:55.836Z,101565.09
2018-05-15T07:13:21.588Z,101566.70
2018-05-15T07:15:47.335Z,101572.81
2018-05-15T07:18:13.080Z,101574.34
2018-05-15T07:20:38.837Z,101577.23
2018-05-15T07:23:04.589Z,101574.56
2018-05-15T07:25:30.341Z,101575.95
2018-05-15T07:27:56.072Z,101570.00
2018-05-15T07:30:21.822Z,101574.63
2018-05-15T07:32:47.565Z,101575.78
2018-05-15T07:35:13.309Z,101576.78
2018-05-15T07:37:39.060Z,101575.87
2018-05-15T07:40:04.817Z,101574.97
2018-05-15T07:42:30.552Z,101574.95
2018-05-15T07:44:56.305Z,101572.04
2018-05-15T07:47:22.048Z,101575.98
2018-05-15T07:49:47.809Z,101563.84
2018-05-15T07:52:13.551Z,101571.59
2018-05-15T07:54:39.316Z,101571.00
2018-05-15T07:57:05.072Z,101581.94
2018-05-15T07:59:30.845Z,101579.89
2018-05-15T08:01:56.621Z,101576.98
2018-05-15T08:04:22.418Z,101580.14
2018-05-15T08:06:48.280Z,101576.46
2018-05-15T08:09:14.069Z,101582.82
2018-05-15T08:11:39.825Z,101585.44
2018-05-15T08:14:05.576Z,101578.50
2018-05-15T08:16:31.324Z,101581.73
2018-05-15T08:18:57.072Z,101587.23
2018-05-15T08:21:22.815Z,101583.63
2018-05-15T08:23:48.565Z,101579.11
2018-05-15T08:26:14.324Z,101575.39
2018-05-15T08:28:40.060Z,101574.72
2018-05-15T08:31:05.820Z,101580.69
2018-05-15T08:33:31.556Z,101580.48
2018-05-15T08:35:57.291Z,101580.02
2018-05-15T08:38:23.037Z,101586.87
2018-05-15T08:40:48.789Z,101580.97
2018-05-15T08:43:14.533Z,101587.27
2018-05-15T08:45:40.280Z,101578.69
2018-05-15T08:48:06.025Z,101582.87
2018-05-15T08:50:31.771Z,101582.97
2018-05-15T08:52:57.504Z,101579.23
2018-05-15T08:55:23.256Z,101579.64
2018-05-15T08:57:49.010Z,101578.30
2018-05-15T09:00:14.761Z,101571.22
2018-05-15T09:02:40.494Z,101568.30
2018-05-15T09:05:06.267Z,101580.34
2018-05-15T09:07:32.007Z,101579.22
2018-05-15T09:09:57.770Z,101578.70
2018-05-15T09:12:23.518Z,101579.89
2018-05-15T09:14:49.308Z,101575.55
2018-05-15T09:17:15.072Z,101576.52
2018-05-15T09:19:40.817Z,101571.55
2018-05-15T09:22:06.560Z,101568.02
2018-05-15T09:24:32.316Z,101564.15
2018-05-15T09:26:58.057Z,101571.32
2018-05-15T09:29:23.822Z,101570.52
2018-05-15T09:31:49.571Z,101570.61
2018-05-15T09:34:15.319Z,101574.50
2018-05-15T09:36:41.065Z,101568.30
2018-05-15T09:39:07.214Z,101573.98
2018-05-15T09:41:33.085Z,101570.17
2018-05-15T09:43:58.836Z,101564.20
2018-05-15T09:46:24.605Z,101561.33
2018-05-15T09:48:50.356Z,101565.22
2018-05-15T09:51:16.104Z,101567.83
2018-05-15T09:53:41.893Z,101559.13
2018-05-15T09:56:07.655Z,101564.41
2018-05-15T09:58:33.380Z,101567.62
2018-05-15T10:00:59.225Z,101561.34
2018-05-15T10:03:24.972Z,101556.70
2018-05-15T10:05:50.712Z,101559.00
2018-05-15T10:08:16.437Z,101559.84
2018-05-15T10:10:42.199Z,101558.45
2018-05-15T10:13:07.999Z,101558.66
2018-05-15T10:15:33.758Z,101551.98
2018-05-15T10:17:59.504Z,101552.81
2018-05-15T10:20:25.245Z,101553.58
2018-05-15T10:22:50.979Z,101543.04
2018-05-15T10:25:16.720Z,101552.64
2018-05-15T10:27:42.476Z,101551.69
2018-05-15T10:30:08.368Z,101547.94
2018-05-15T10:32:34.117Z,101546.28
2018-05-15T10:34:59.855Z,101543.91
2018-05-15T10:37:25.685Z,101551.08
2018-05-15T10:39:51.335Z,101537.80
2018-05-15T10:42:17.084Z,101537.11
2018-05-15T10:44:42.819Z,101530.91
2018-05-15T10:47:08.577Z,101529.88
2018-05-15T10:49:34.312Z,101534.77
2018-05-15T10:52:00.057Z,101529.10
2018-05-15T10:54:25.833Z,101529.72
2018-05-15T10:56:51.580Z,101533.42
2018-05-15T10:59:17.316Z,101532.25
2018-05-15T11:01:43.365Z,101535.42
2018-05-15T11:04:08.808Z,101529.44
2018-05-15T11:06:34.562Z,101527.72
2018-05-15T11:09:00.301Z,101523.05
2018-05-15T11:11:26.070Z,101524.40
2018-05-15T11:13:51.818Z,101520.57
2018-05-15T11:16:17.597Z,101521.91
2018-05-15T11:18:43.443Z,101519.19
2018-05-15T11:21:21.657Z,101514.45
2018-05-15T11:23:59.865Z,101520.82
2018-05-15T11:26:25.621Z,101509.06
2018-05-15T11:28:51.376Z,101521.65
2018-05-15T11:31:17.214Z,101511.03
2018-05-15T11:33:42.876Z,101506.33
2018-05-15T11:36:08.622Z,101510.63
2018-05-15T11:38:34.381Z,101501.47
2018-05-15T11:41:00.117Z,101495.89
2018-05-15T11:43:25.886Z,101496.62
2018-05-15T11:45:51.626Z,101502.62
2018-05-15T11:48:18.017Z,101500.02
2018-05-15T11:50:44.316Z,101500.80
2018-05-15T11:53:09.807Z,101498.06
2018-05-15T11:55:35.296Z,101494.61
2018-05-15T11:58:00.464Z,101496.52
2018-05-15T12:00:26.163Z,101497.11
2018-05-15T12:02:51.909Z,101496.57
2018-05-15T12:05:17.661Z,101492.30
2018-05-15T12:07:43.420Z,101493.88
2018-05-15T12:10:09.166Z,101498.72
2018-05-15T12:12:34.920Z,101500.16
2018-05-15T12:15:00.693Z,101498.67
2018-05-15T12:17:26.444Z,101494.21
2018-05-15T12:19:52.185Z,101496.74
2018-05-15T12:22:17.953Z,101490.63
2018-05-15T12:24:43.697Z,101486.09
2018-05-15T12:27:09.452Z,101491.13
2018-05-15T12:29:35.193Z,101492.45
2018-05-15T12:32:00.940Z,101478.19
2018-05-15T12:34:26.669Z,101485.13
2018-05-15T12:36:52.411Z,101475.38
2018-05-15T12:39:18.170Z,101479.76
2018-05-15T12:41:43.960Z,101474.79
2018-05-15T12:44:09.719Z,101477.93
2018-05-15T12:46:35.532Z,101471.64
2018-05-15T12:49:01.339Z,101472.53
2018-05-15T12:51:27.075Z,101471.48
2018-05-15T12:53:52.841Z,101466.97
2018-05-15T12:56:18.585Z,101459.64
2018-05-15T12:58:44.344Z,101457.47
2018-05-15T13:01:10.086Z,101462.22
2018-05-15T13:03:35.841Z,101462.05
2018-05-15T13:06:01.615Z,101455.74
2018-05-15T13:08:27.365Z,101447.25
2018-05-15T13:10:53.115Z,101450.13
2018-05-15T13:13:18.856Z,101453.29
2018-05-15T13:15:44.600Z,101453.26
2018-05-15T13:18:10.332Z,101445.46
2018-05-15T13:20:36.072Z,101445.70
2018-05-15T13:23:01.824Z,101445.72
2018-05-15T13:25:27.566Z,101443.13
2018-05-15T13:27:53.304Z,101441.59
2018-05-15T13:30:19.065Z,101441.41
2018-05-15T13:32:44.817Z,101439.84
2018-05-15T13:35:10.569Z,101435.50
2018-05-15T13:37:36.312Z,101439.77
2018-05-15T13:40:02.062Z,101432.52
2018-05-15T13:42:27.821Z,101428.78
2018-05-15T13:44:53.553Z,101430.92
2018-05-15T13:47:19.297Z,101428.56
2018-05-15T13:49:45.056Z,101427.88
2018-05-15T13:52:10.796Z,101425.80
2018-05-15T13:54:36.555Z,101425.53
2018-05-15T13:57:02.298Z,101422.31
2018-05-15T13:59:28.149Z,101417.28
2018-05-15T14:01:53.795Z,101409.83
2018-05-15T14:04:19.554Z,101419.64
2018-05-15T14:06:45.293Z,101413.18
2018-05-15T14:09:11.046Z,101413.03
2018-05-15T14:11:36.789Z,101406.27
2018-05-15T14:14:02.553Z,101400.41
2018-05-15T14:16:28.301Z,101407.98
2018-05-15T14:18:54.056Z,101400.30
2018-05-15T14:21:19.814Z,101402.22
2018-05-15T14:23:45.582Z,101404.13
2018-05-15T14:26:11.319Z,101402.58
2018-05-15T14:28:37.073Z,101404.91
2018-05-15T14:31:02.807Z,101401.44
2018-05-15T14:33:28.557Z,101393.45
2018-05-15T14:35:54.287Z,101393.89
2018-05-15T14:38:20.036Z,101382.56
2018-05-15T14:40:45.772Z,101390.61
2018-05-15T14:43:17.632Z,101391.73
2018-05-15T14:45:43.353Z,101391.99
2018-05-15T14:48:09.109Z,101386.66
2018-05-15T14:50:47.055Z,101383.84
2018-05-15T14:53:12.800Z,101383.27
2018-05-15T14:55:38.574Z,101383.41
2018-05-15T14:58:04.301Z,101386.05
2018-05-15T15:00:30.057Z,101382.08
2018-05-15T15:02:55.796Z,101376.68
2018-05-15T15:05:21.560Z,101376.75
2018-05-15T15:07:47.319Z,101379.47
2018-05-15T15:10:13.074Z,101378.43
2018-05-15T15:12:38.813Z,101373.98
2018-05-15T15:15:04.577Z,101378.52
2018-05-15T15:17:30.394Z,101373.00
2018-05-15T15:19:56.076Z,101379.69
2018-05-15T15:22:21.820Z,101371.44
2018-05-15T15:24:47.585Z,101374.08
2018-05-15T15:27:13.329Z,101374.12
2018-05-15T15:29:39.092Z,101378.05
2018-05-15T15:32:05.629Z,101377.41
2018-05-15T15:34:31.381Z,101378.58
2018-05-15T15:36:57.120Z,101371.59
2018-05-15T15:39:22.876Z,101376.13
2018-05-15T15:41:48.625Z,101364.67
2018-05-15T15:44:14.373Z,101370.34
2018-05-15T15:46:40.129Z,101363.39
2018-05-15T15:49:05.889Z,101369.68
2018-05-15T15:51:31.640Z,101368.84
2018-05-15T15:53:57.392Z,101357.88
2018-05-15T15:56:23.147Z,101359.98
2018-05-15T15:58:48.900Z,101358.43
2018-05-15T16:01:14.644Z,101358.33
2018-05-15T16:03:40.404Z,101358.19
2018-05-15T16:06:06.148Z,101359.00
2018-05-15T16:08:31.889Z,101360.91
2018-05-15T16:10:57.651Z,101353.01
2018-05-15T16:13:23.405Z,101355.63
2018-05-15T16:15:49.161Z,101355.16
2018-05-15T16:18:14.905Z,101355.73
2018-05-15T16:20:40.653Z,101345.95
2018-05-15T16:23:06.418Z,101338.50
2018-05-15T16:25:32.209Z,101345.66
2018-05-15T16:27:58.001Z,101346.63
2018-05-15T16:30:23.748Z,101340.98
2018-05-15T16:32:49.485Z,101346.55
2018-05-15T16:35:15.244Z,101350.08
2018-05-15T16:37:41.062Z,101347.65
2018-05-15T16:40:06.757Z,101345.95
2018-05-15T16:42:32.505Z,101338.67
2018-05-15T16:44:58.268Z,101334.27
2018-05-15T16:47:24.008Z,101332.49
2018-05-15T16:49:49.761Z,101333.66
2018-05-15T16:52:15.502Z,101332.95
2018-05-15T16:54:41.266Z,101330.66
2018-05-15T16:57:07.016Z,101329.09
2018-05-15T16:59:32.760Z,101321.95
2018-05-15T17:01:58.497Z,101327.98
2018-05-15T17:04:24.256Z,101332.29
2018-05-15T17:06:49.998Z,101331.42
2018-05-15T17:09:15.747Z,101330.62
2018-05-15T17:11:41.519Z,101331.58
2018-05-15T17:14:08.396Z,101321.66
2018-05-15T17:16:35.547Z,101317.23
2018-05-15T17:19:01.452Z,101313.20
2018-05-15T17:21:29.090Z,101318.34
2018-05-15T17:23:54.829Z,101305.80
2018-05-15T17:26:20.677Z,101310.20
2018-05-15T17:28:46.442Z,101306.67
2018-05-15T17:31:12.206Z,101304.58
2018-05-15T17:33:37.945Z,101300.83
2018-05-15T17:36:03.701Z,101300.55
2018-05-15T17:38:29.444Z,101301.36
2018-05-15T17:40:55.256Z,101303.08
2018-05-15T17:43:20.943Z,101300.14
2018-05-15T17:45:46.703Z,101303.27
2018-05-15T17:48:12.468Z,101304.73
2018-05-15T17:50:38.245Z,101298.42
2018-05-15T17:53:04.076Z,101300.77
2018-05-15T17:55:29.870Z,101302.05
2018-05-15T17:57:55.807Z,101298.61
2018-05-15T18:00:21.728Z,101296.17
2018-05-15T18:02:47.651Z,101294.07
2018-05-15T18:05:13.434Z,101290.04
2018-05-15T18:07:39.238Z,101287.79
2018-05-15T18:10:05.085Z,101286.97
2018-05-15T18:12:30.812Z,101286.47
2018-05-15T18:14:56.595Z,101284.53
2018-05-15T18:17:22.332Z,101288.38
2018-05-15T18:19:48.080Z,101281.93
2018-05-15T18:22:13.869Z,101285.24
2018-05-15T18:24:39.613Z,101281.67
2018-05-15T18:27:05.363Z,101279.84
2018-05-15T18:29:31.095Z,101276.48
2018-05-15T18:31:56.841Z,101276.58
2018-05-15T18:34:22.588Z,101271.55
2018-05-15T18:36:48.333Z,101270.64
2018-05-15T18:39:14.069Z,101273.52
2018-05-15T18:41:39.828Z,101273.98
2018-05-15T18:44:05.559Z,101277.08
2018-05-15T18:46:31.322Z,101272.98
2018-05-15T18:48:57.242Z,101273.09
2018-05-15T18:51:22.992Z,101279.34
2018-05-15T18:53:48.720Z,101284.73
2018-05-15T18:56:14.477Z,101282.02
2018-05-15T18:58:40.221Z,101286.97
2018-05-15T19:01:05.974Z,101286.41
2018-05-15T19:03:31.704Z,101290.27
2018-05-15T19:05:57.428Z,101297.87
2018-05-15T19:08:23.177Z,101301.53
2018-05-15T19:10:48.952Z,101296.72
2018-05-15T19:13:14.724Z,101304.75
2018-05-15T19:15:40.500Z,101298.94
2018-05-15T19:18:06.260Z,101309.09
2018-05-15T19:20:32.025Z,101313.67
2018-05-15T19:22:57.775Z,101311.15
2018-05-15T19:25:23.508Z,101313.36
2018-05-15T19:27:49.300Z,101309.42
2018-05-15T19:30:15.077Z,101315.07
2018-05-15T19:32:40.853Z,101318.97
2018-05-15T19:35:06.706Z,101318.20
2018-05-15T19:37:32.541Z,101318.50
2018-05-15T19:39:58.297Z,101320.78
2018-05-15T19:42:24.046Z,101324.20
2018-05-15T19:44:49.785Z,101323.84
2018-05-15T19:47:15.552Z,101322.53
2018-05-15T19:49:41.298Z,101326.55
2018-05-15T19:52:07.053Z,101323.11
2018-05-15T19:54:32.788Z,101328.93
2018-05-15T19:56:58.540Z,101326.61
2018-05-15T19:59:24.275Z,101319.73
2018-05-15T20:01:50.040Z,101324.94
2018-05-15T20:04:15.801Z,101322.25
2018-05-15T20:06:41.548Z,101323.75
2018-05-15T20:09:07.347Z,101332.20
2018-05-15T20:11:33.122Z,101335.98
2018-05-15T20:13:58.848Z,101334.36
2018-05-15T20:16:24.636Z,101334.77
2018-05-15T20:18:50.637Z,101335.88
2018-05-15T20:21:16.413Z,101331.66
2018-05-15T20:23:42.223Z,101326.53
2018-05-15T20:26:07.988Z,101331.95
2018-05-15T20:28:33.803Z,101336.67
2018-05-15T20:30:59.564Z,101339.73
2018-05-15T20:33:25.341Z,101349.42
2018-05-15T20:35:51.117Z,101346.14
2018-05-15T20:38:16.866Z,101344.66
2018-05-15T20:40:42.613Z,101348.47
2018-05-15T20:43:09.023Z,101340.79
2018-05-15T20:45:34.800Z,101343.03
2018-05-15T20:48:00.572Z,101343.05
2018-05-15T20:50:26.983Z,101343.37
2018-05-15T20:52:52.756Z,101340.29
2018-05-15T20:55:18.499Z,101341.87
2018-05-15T20:57:44.261Z,101343.75
2018-05-15T21:00:09.993Z,101342.16
2018-05-15T21:02:35.753Z,101343.67
2018-05-15T21:05:02.030Z,101348.33
2018-05-15T21:07:27.796Z,101346.41
2018-05-15T21:09:54.794Z,101339.72
2018-05-15T21:12:20.566Z,101342.00
2018-05-15T21:14:46.440Z,101347.81
2018-05-15T21:17:12.208Z,101349.34
2018-05-15T21:19:38.937Z,101352.09
2018-05-15T21:22:04.700Z,101359.12
2018-05-15T21:24:30.906Z,101357.69
2018-05-15T21:26:56.667Z,101357.88
2018-05-15T21:29:22.459Z,101356.89
2018-05-15T21:31:48.800Z,101354.16
2018-05-15T21:34:14.550Z,101351.89
2018-05-15T21:36:40.326Z,101349.97
2018-05-15T21:39:06.055Z,101348.91
2018-05-15T21:41:31.804Z,101354.27
2018-05-15T21:43:57.550Z,101353.45
2018-05-15T21:46:23.289Z,101359.73
2018-05-15T21:48:49.032Z,101356.25
2018-05-15T21:51:14.763Z,101354.81
2018-05-15T21:53:40.521Z,101353.83
2018-05-15T21:56:06.275Z,101357.22
2018-05-15T21:58:32.021Z,101352.08
2018-05-15T22:00:57.765Z,101356.53
2018-05-15T22:03:23.515Z,101358.64
2018-05-15T22:05:49.261Z,101360.59
2018-05-15T22:08:15.025Z,101352.82
2018-05-15T22:10:40.865Z,101358.78
2018-05-15T22:13:18.921Z,101355.19
2018-05-15T22:15:57.187Z,101353.44
2018-05-15T22:18:35.491Z,101357.98
2018-05-15T22:21:13.744Z,101361.86
2018-05-15T22:23:39.380Z,101358.59
2018-05-15T22:26:05.115Z,101356.94
2018-05-15T22:28:30.856Z,101354.41
2018-05-15T22:30:56.594Z,101349.95
2018-05-15T22:33:22.336Z,101346.06
2018-05-15T22:35:48.076Z,101343.41
2018-05-15T22:38:13.812Z,101339.77
2018-05-15T22:40:39.543Z,101338.89
2018-05-15T22:43:05.305Z,101336.68
2018-05-15T22:45:31.055Z,101334.20
2018-05-15T22:47:56.792Z,101332.09
2018-05-15T22:50:22.520Z,101331.97
2018-05-15T22:52:48.270Z,101334.69
2018-05-15T22:55:14.000Z,101333.13
2018-05-15T22:57:39.755Z,101325.09
2018-05-15T23:00:05.509Z,101327.70
2018-05-15T23:02:31.245Z,101331.22
2018-05-15T23:04:56.998Z,101335.35
2018-05-15T23:07:22.723Z,101333.56
2018-05-15T23:09:48.464Z,101331.92
2018-05-15T23:12:14.208Z,101334.56
2018-05-15T23:14:39.972Z,101329.37
2018-05-15T23:17:05.709Z,101331.33
2018-05-15T23:19:31.469Z,101325.93
2018-05-15T23:21:57.209Z,101325.79
2018-05-15T23:24:22.964Z,101324.64
2018-05-15T23:26:48.711Z,101318.00
2018-05-15T23:29:14.464Z,101316.32
2018-05-15T23:31:40.207Z,101317.66
2018-05-15T23:34:05.952Z,101315.45
2018-05-15T23:36:31.682Z,101319.06
2018-05-15T23:38:57.439Z,101317.16
2018-05-15T23:41:23.184Z,101321.29
2018-05-15T23:43:48.926Z,101320.50
2018-05-15T23:46:14.671Z,101315.77
2018-05-15T23:48:40.415Z,101322.30
2018-05-15T23:51:06.159Z,101322.93
2018-05-15T23:53:31.909Z,101327.11
2018-05-15T23:55:57.645Z,101327.05
2018-05-15T23:58:23.398Z,101321.28
